Decoded Metar for SBNF (NAVEGANTES in BRAZIL) (IATA:NVT) | Meteo·Mobile Aviation Weather
aviador You're here:

SBNF Decoded Metar

NAVEGANTES in BRAZIL
Report Time2019-07-16 10:00:00
UTC Time2019-07-16 10:13:35
Flight Rules vfr VFR
Wind260° at 05 kt
W.Decomp.*RWY 25: 4.5 kt HW 2.3 kt RCW
Visibility9999 m
Phenomena:N/A
Clouds:Few 015 Hf
Expected CloudBase > 400 ft AGL from Temp-Dew spread
CeilingNone
Temp12°C (ISA -3)
Dew Point11°C (94% RH)
AAT10.5°C
QNH1020 hPa
Density Alt-400 ft
Elevation16 ft
Report Wrong Elevation
Raw Report
METAR SBNF 161000Z 26005KT 9999 FEW015 12/11 Q1020=

Extra information for SBNF:More info

Metar Taf Metar & Taf Last 4 Metars F.Rules Stats Wind Profile Meteogram Temp Stats Airport Information Weather charts Add Link Nearby VenuesMetar ALERT Operation Metar Decoded Social comments